Time;durP1;ratioP1;P1;durP2;ratioP2;P2;SDS_P1;SDS_P2;PMS_P1;PMS_P2;Temp;Humidity;BMP_temperature;BMP_pressure;BME280_temperature;BME280_humidity;BME280_pressure;Samples;Min_cycle;Max_cycle;Signal;HPM_P1;HPM_P2
2022/07/14 00:01:53;;;;;;;0.10;0.10;;;21.80;67.20;;;;;;5052531;28;20028;-73
2022/07/14 00:04:18;;;;;;;0.10;0.10;;;21.80;66.20;;;;;;5052396;28;20032;-74
2022/07/14 00:06:44;;;;;;;0.00;0.00;;;21.80;66.30;;;;;;5052478;28;20021;-74
2022/07/14 00:09:10;;;;;;;0.10;0.10;;;21.80;66.80;;;;;;5052330;28;20021;-74
2022/07/14 00:11:36;;;;;;;0.00;0.00;;;21.60;66.30;;;;;;5052317;28;20422;-73
2022/07/14 00:14:02;;;;;;;0.10;0.10;;;21.50;66.50;;;;;;5052239;28;20029;-73
2022/07/14 00:16:28;;;;;;;0.15;0.15;;;21.50;67.00;;;;;;5052283;28;20721;-74
2022/07/14 00:18:54;;;;;;;0.00;0.00;;;21.50;66.90;;;;;;5052103;28;20025;-74
2022/07/14 00:21:19;;;;;;;0.00;0.00;;;21.60;67.20;;;;;;5017830;28;20495;-74
2022/07/14 00:23:48;;;;;;;0.00;0.00;;;21.60;67.70;;;;;;5034327;28;20534;-73
2022/07/14 00:26:14;;;;;;;0.10;0.10;;;21.60;67.70;;;;;;5034309;28;20044;-73
2022/07/14 00:28:40;;;;;;;0.35;0.35;;;21.60;68.50;;;;;;5052108;28;20021;-74
2022/07/14 00:31:10;;;;;;;0.00;0.00;;;21.60;67.40;;;;;;5051961;28;20032;-73
2022/07/14 00:33:38;;;;;;;0.30;0.30;;;21.50;68.10;;;;;;5034184;28;20052;-73
2022/07/14 00:36:04;;;;;;;0.00;0.00;;;21.60;67.90;;;;;;5052058;28;20025;-73
2022/07/14 00:38:30;;;;;;;0.10;0.10;;;21.70;66.40;;;;;;5051919;28;20028;-73
2022/07/14 00:40:56;;;;;;;0.10;0.10;;;21.70;67.60;;;;;;5017608;28;20029;-73
2022/07/14 00:43:22;;;;;;;0.00;0.00;;;21.50;67.80;;;;;;5051988;28;20048;-73
2022/07/14 00:45:48;;;;;;;0.00;0.00;;;21.50;68.20;;;;;;5051800;28;20052;-74
2022/07/14 00:48:14;;;;;;;0.10;0.10;;;21.60;67.90;;;;;;5034194;28;20021;-73
2022/07/14 00:50:44;;;;;;;0.00;0.00;;;21.60;68.30;;;;;;5051787;28;20025;-73
2022/07/14 00:53:11;;;;;;;0.20;0.20;;;21.40;68.70;;;;;;5033948;28;20020;-74
2022/07/14 00:55:40;;;;;;;0.00;0.00;;;21.40;68.70;;;;;;5034128;28;20087;-73
2022/07/14 00:58:06;;;;;;;0.00;0.00;;;21.30;69.50;;;;;;5034023;28;20028;-74
2022/07/14 01:00:31;;;;;;;0.00;0.00;;;21.30;70.30;;;;;;5033726;28;20419;-74
2022/07/14 01:02:57;;;;;;;0.00;0.00;;;21.30;69.40;;;;;;5051746;28;20040;-74
2022/07/14 01:05:23;;;;;;;0.00;0.00;;;21.40;68.50;;;;;;5033818;28;20517;-74
2022/07/14 01:07:49;;;;;;;0.00;0.00;;;21.40;67.40;;;;;;5051694;28;20028;-74
2022/07/14 01:10:15;;;;;;;0.00;0.00;;;21.40;67.70;;;;;;5051874;28;20029;-74
2022/07/14 01:12:46;;;;;;;0.00;0.00;;;21.50;66.80;;;;;;5051654;28;20021;-73
2022/07/14 01:15:14;;;;;;;0.00;0.00;;;21.50;65.70;;;;;;5033736;28;20049;-74
2022/07/14 01:17:40;;;;;;;0.00;0.00;;;21.70;65.90;;;;;;5051664;28;20032;-74
2022/07/14 01:20:06;;;;;;;0.00;0.00;;;21.60;66.20;;;;;;5033856;28;20029;-74
2022/07/14 01:22:32;;;;;;;0.00;0.00;;;21.50;66.20;;;;;;5051656;28;20025;-74
2022/07/14 01:24:58;;;;;;;0.00;0.00;;;21.40;67.10;;;;;;5051578;28;20094;-74
2022/07/14 01:27:24;;;;;;;0.00;0.00;;;21.40;67.40;;;;;;5037275;28;20017;-74
2022/07/14 01:29:50;;;;;;;0.03;0.03;;;21.60;67.30;;;;;;5037432;28;20025;-74
2022/07/14 01:32:15;;;;;;;0.05;0.05;;;21.50;68.00;;;;;;5037280;28;20400;-73
2022/07/14 01:34:41;;;;;;;0.00;0.00;;;21.50;68.40;;;;;;5055324;28;20104;-74
2022/07/14 01:37:07;;;;;;;0.08;0.08;;;21.40;68.50;;;;;;5055238;28;20035;-74
2022/07/14 01:39:33;;;;;;;0.00;0.00;;;21.30;68.90;;;;;;5055118;28;20358;-74
2022/07/14 01:41:58;;;;;;;0.10;0.10;;;21.20;68.60;;;;;;5037285;28;20029;-74
2022/07/14 01:44:24;;;;;;;0.00;0.00;;;21.30;67.80;;;;;;5054978;28;20066;-73
2022/07/14 01:46:50;;;;;;;0.00;0.00;;;21.30;66.60;;;;;;5055127;28;20427;-74
2022/07/14 01:49:15;;;;;;;0.00;0.00;;;21.20;67.90;;;;;;5037211;28;20380;-73
2022/07/14 01:51:41;;;;;;;0.00;0.00;;;21.20;68.70;;;;;;5037076;28;20159;-73
2022/07/14 01:54:07;;;;;;;0.00;0.00;;;21.40;68.60;;;;;;5054932;28;20429;-74
2022/07/14 01:56:38;;;;;;;0.00;0.00;;;21.30;68.30;;;;;;5037082;28;20431;-74
2022/07/14 01:59:04;;;;;;;0.10;0.10;;;21.40;67.70;;;;;;5037011;28;20395;-73
2022/07/14 02:01:42;;;;;;;0.00;0.00;;;21.40;67.20;;;;;;5036846;28;20062;-73
2022/07/14 02:04:13;;;;;;;0.00;0.00;;;21.40;68.00;;;;;;5054815;28;20024;-73
2022/07/14 02:06:50;;;;;;;0.10;0.10;;;21.30;68.40;;;;;;5054670;28;20021;-74
2022/07/14 02:09:16;;;;;;;4.50;0.17;;;21.10;68.80;;;;;;5036643;28;20120;-73
2022/07/14 02:14:29;;;;;;;0.08;0.08;;;20.90;70.00;;;;;;5036623;28;20025;-74
2022/07/14 02:16:55;;;;;;;0.08;0.08;;;20.90;69.10;;;;;;5054632;28;20536;-73
2022/07/14 02:19:23;;;;;;;0.00;0.00;;;21.00;70.00;;;;;;5054463;28;20087;-73
2022/07/14 02:21:51;;;;;;;0.10;0.10;;;21.00;70.50;;;;;;5019993;28;20025;-73
2022/07/14 02:24:17;;;;;;;0.03;0.03;;;21.10;70.40;;;;;;5054525;28;20021;-74
2022/07/14 02:26:43;;;;;;;0.00;0.00;;;21.20;70.00;;;;;;5036511;28;20029;-74
2022/07/14 02:29:10;;;;;;;0.00;0.00;;;21.10;70.10;;;;;;5036438;28;20017;-74
2022/07/14 02:31:36;;;;;;;0.10;0.10;;;21.00;70.20;;;;;;5054212;28;20535;-73
2022/07/14 02:34:03;;;;;;;0.00;0.00;;;21.00;69.70;;;;;;5054219;28;20394;-74
2022/07/14 02:36:29;;;;;;;0.00;0.00;;;20.90;69.60;;;;;;5053986;28;20051;-74
2022/07/14 02:38:56;;;;;;;0.00;0.00;;;21.00;69.50;;;;;;5018601;28;20029;-74
2022/07/14 02:41:22;;;;;;;0.00;0.00;;;21.00;71.50;;;;;;5053949;28;20032;-74
2022/07/14 02:43:48;;;;;;;0.00;0.00;;;21.00;70.40;;;;;;5036042;28;20496;-74
2022/07/14 02:46:14;;;;;;;0.25;0.25;;;21.10;70.00;;;;;;5036136;28;20068;-74
2022/07/14 02:48:39;;;;;;;0.00;0.00;;;21.10;70.20;;;;;;5053916;28;20427;-74
2022/07/14 02:51:09;;;;;;;0.00;0.00;;;21.20;68.90;;;;;;5019465;28;20025;-74
2022/07/14 02:53:36;;;;;;;0.13;0.13;;;21.20;68.70;;;;;;5019482;28;20485;-74
2022/07/14 02:56:06;;;;;;;0.10;0.10;;;21.10;68.80;;;;;;5035877;28;20104;-74
2022/07/14 02:58:33;;;;;;;0.03;0.03;;;21.00;68.50;;;;;;5053768;28;20025;-74
2022/07/14 03:00:58;;;;;;;0.10;0.10;;;20.90;68.60;;;;;;5035706;28;20059;-74
2022/07/14 03:03:25;;;;;;;0.00;0.00;;;20.90;67.80;;;;;;5035800;28;20115;-74
2022/07/14 03:05:51;;;;;;;0.08;0.08;;;20.90;68.90;;;;;;5035668;28;20559;-74
2022/07/14 03:08:17;;;;;;;0.20;0.20;;;21.00;67.30;;;;;;5019216;28;20519;-74
2022/07/14 03:10:43;;;;;;;0.00;0.00;;;21.00;66.10;;;;;;5053391;28;20021;-74
2022/07/14 03:13:09;;;;;;;0.08;0.08;;;21.20;64.90;;;;;;5053484;28;20021;-74
2022/07/14 03:15:36;;;;;;;0.17;0.17;;;21.30;64.20;;;;;;5053542;28;20029;-74
2022/07/14 03:18:02;;;;;;;0.15;0.15;;;21.30;63.60;;;;;;5035458;28;20082;-74
2022/07/14 03:20:29;;;;;;;0.00;0.00;;;21.30;63.60;;;;;;5053182;28;20029;-74
2022/07/14 03:22:54;;;;;;;0.00;0.00;;;21.30;64.00;;;;;;5053351;28;20021;-74
2022/07/14 03:25:21;;;;;;;0.08;0.08;;;21.10;67.00;;;;;;5035390;28;20122;-74
2022/07/14 03:27:47;;;;;;;0.10;0.10;;;21.00;67.60;;;;;;5053242;28;20079;-74
2022/07/14 03:30:14;;;;;;;0.10;0.10;;;21.00;67.40;;;;;;5053140;28;20017;-74
2022/07/14 03:32:40;;;;;;;0.10;0.10;;;21.00;68.10;;;;;;5053010;28;20108;-74
2022/07/14 03:35:07;;;;;;;0.00;0.00;;;20.90;68.10;;;;;;5053072;28;20028;-74
2022/07/14 03:37:36;;;;;;;0.00;0.00;;;20.70;68.70;;;;;;5052942;28;20028;-74
2022/07/14 03:40:05;;;;;;;0.00;0.00;;;20.70;69.20;;;;;;5067590;22;20064;-72
2022/07/14 03:42:30;;;;;;;0.10;0.10;;;20.60;69.20;;;;;;5054394;28;20100;-71
2022/07/14 03:44:56;;;;;;;0.00;0.00;;;20.60;70.00;;;;;;5019801;28;20144;-73
2022/07/14 03:47:22;;;;;;;0.20;0.20;;;20.50;70.60;;;;;;5054071;28;20029;-73
2022/07/14 03:49:49;;;;;;;0.08;0.08;;;20.60;69.50;;;;;;5054088;28;20052;-73
2022/07/14 03:52:15;;;;;;;0.00;0.00;;;20.60;70.50;;;;;;5036308;28;20025;-73
2022/07/14 03:54:45;;;;;;;0.05;0.05;;;20.70;70.30;;;;;;5036148;28;20025;-72
2022/07/14 03:57:12;;;;;;;0.03;0.03;;;20.70;70.60;;;;;;5036344;28;20029;-72
2022/07/14 03:59:40;;;;;;;0.20;0.20;;;20.70;70.60;;;;;;5053862;28;20021;-73
2022/07/14 04:02:12;;;;;;;0.20;0.20;;;20.70;69.40;;;;;;5036158;28;20431;-72
2022/07/14 04:04:39;;;;;;;0.08;0.08;;;20.70;66.70;;;;;;5053616;28;20469;-72
2022/07/14 04:07:05;;;;;;;0.08;0.08;;;20.70;69.70;;;;;;5020046;28;20071;-73
2022/07/14 04:09:32;;;;;;;0.00;0.00;;;20.70;69.90;;;;;;5053023;28;20029;-73
2022/07/14 04:11:58;;;;;;;0.10;0.10;;;20.80;69.90;;;;;;5035635;28;20025;-73
2022/07/14 04:14:24;;;;;;;0.00;0.00;;;20.90;68.70;;;;;;5035794;28;20025;-73
2022/07/14 04:16:50;;;;;;;0.00;0.00;;;21.00;68.40;;;;;;5053541;28;20506;-73
2022/07/14 04:19:16;;;;;;;0.10;0.10;;;21.10;68.80;;;;;;5052905;28;20072;-73
2022/07/14 04:21:42;;;;;;;0.00;0.00;;;21.10;68.90;;;;;;5035630;28;20053;-73
2022/07/14 04:24:08;;;;;;;0.10;0.10;;;21.20;68.80;;;;;;5035331;28;20078;-73
2022/07/14 04:26:37;;;;;;;0.00;0.00;;;21.30;68.80;;;;;;5035434;28;20479;-73
2022/07/14 04:29:04;;;;;;;0.00;0.00;;;21.40;68.80;;;;;;5035525;28;20025;-73
2022/07/14 04:31:30;;;;;;;0.00;0.00;;;21.40;69.10;;;;;;5018766;28;20017;-73
2022/07/14 04:33:56;;;;;;;0.17;0.17;;;21.20;70.00;;;;;;5053188;28;20052;-73
2022/07/14 04:36:23;;;;;;;0.00;0.00;;;21.10;71.40;;;;;;5054033;28;20068;-72
2022/07/14 04:38:49;;;;;;;0.00;0.00;;;21.00;72.80;;;;;;5053573;28;20048;-72
2022/07/14 04:41:14;;;;;;;0.10;0.10;;;21.00;72.60;;;;;;5019748;28;20079;-73
2022/07/14 04:43:40;;;;;;;3.50;0.57;;;21.00;72.50;;;;;;5036139;28;20025;-73
2022/07/14 04:46:06;;;;;;;0.10;0.10;;;21.20;70.70;;;;;;5054136;28;20040;-73
2022/07/14 04:52:01;;;;;;;0.00;0.00;;;21.30;71.30;;;;;;5054158;28;20032;-73
2022/07/14 04:54:02;;;;;;;0.13;0.13;;;21.30;72.40;;;;;;5035711;28;20140;-72
2022/07/14 04:56:28;;;;;;;0.00;0.00;;;21.30;71.00;;;;;;5053550;28;20032;-73
2022/07/14 04:58:54;;;;;;;0.00;0.00;;;21.30;71.60;;;;;;5035985;28;20021;-73
2022/07/14 05:01:19;;;;;;;0.00;0.00;;;21.50;70.40;;;;;;5036848;28;20104;-72
2022/07/14 05:03:45;;;;;;;0.13;0.13;;;21.60;70.60;;;;;;5039620;28;20035;-73
2022/07/14 05:06:11;;;;;;;0.00;0.00;;;21.70;70.00;;;;;;5039971;28;20074;-73
2022/07/14 05:08:36;;;;;;;0.00;0.00;;;21.70;69.30;;;;;;5057351;28;20036;-73
2022/07/14 05:11:04;;;;;;;0.08;0.08;;;21.90;69.20;;;;;;5039104;28;20131;-73
2022/07/14 05:13:30;;;;;;;0.00;0.00;;;21.90;69.70;;;;;;5039300;28;20027;-73
2022/07/14 05:15:55;;;;;;;0.00;0.00;;;21.90;70.70;;;;;;5039640;28;20040;-73
2022/07/14 05:18:21;;;;;;;0.00;0.00;;;21.80;71.20;;;;;;5039745;28;20025;-73
2022/07/14 05:20:47;;;;;;;0.10;0.10;;;21.70;72.30;;;;;;5053747;28;20047;-73
2022/07/14 05:23:13;;;;;;;0.00;0.00;;;21.70;73.40;;;;;;5045806;28;20492;-73
2022/07/14 05:25:39;;;;;;;0.00;0.00;;;21.60;72.90;;;;;;5055648;28;20056;-72
2022/07/14 05:28:05;;;;;;;0.00;0.00;;;21.60;71.70;;;;;;5034308;28;20491;-73
2022/07/14 05:30:31;;;;;;;0.10;0.10;;;21.60;72.20;;;;;;5055457;28;20029;-73
2022/07/14 05:32:57;;;;;;;0.00;0.00;;;21.60;69.40;;;;;;5049945;28;20053;-73
2022/07/14 05:35:23;;;;;;;0.00;0.00;;;21.60;69.50;;;;;;5056568;28;20036;-73
2022/07/14 05:37:49;;;;;;;0.00;0.00;;;21.60;68.70;;;;;;5044759;28;20380;-73
2022/07/14 05:40:15;;;;;;;0.10;0.10;;;21.60;69.40;;;;;;5038396;28;20044;-73
2022/07/14 05:42:42;;;;;;;0.00;0.00;;;21.60;69.70;;;;;;5055592;28;20449;-73
2022/07/14 05:45:08;;;;;;;1.85;0.63;;;21.70;69.20;;;;;;5037798;28;20029;-73
2022/07/14 05:47:34;;;;;;;0.05;0.05;;;21.70;67.20;;;;;;5055217;28;20200;-73
2022/07/14 05:50:00;;;;;;;0.00;0.00;;;21.80;68.30;;;;;;5039292;28;20163;-73
2022/07/14 05:52:28;;;;;;;0.20;0.20;;;21.90;68.50;;;;;;5056760;28;20028;-73
2022/07/14 05:54:57;;;;;;;0.00;0.00;;;22.20;68.30;;;;;;5056271;28;20024;-73
2022/07/14 05:57:22;;;;;;;0.20;0.20;;;22.50;68.30;;;;;;5059237;28;20453;-72
2022/07/14 05:59:48;;;;;;;0.00;0.00;;;22.80;65.90;;;;;;5043313;28;20025;-73
2022/07/14 06:02:14;;;;;;;0.00;0.00;;;23.10;62.10;;;;;;5056760;28;20037;-73
2022/07/14 06:04:40;;;;;;;0.30;0.30;;;23.40;61.20;;;;;;5056113;28;20063;-73
2022/07/14 06:07:09;;;;;;;0.10;0.10;;;23.60;59.90;;;;;;5047698;28;20057;-73
2022/07/14 06:09:36;;;;;;;0.10;0.10;;;23.70;59.10;;;;;;5057781;28;20383;-73
2022/07/14 06:12:07;;;;;;;0.35;0.20;;;23.90;59.70;;;;;;5045931;28;20049;-73
2022/07/14 06:14:32;;;;;;;0.00;0.00;;;24.00;59.50;;;;;;5038005;28;20467;-73
2022/07/14 06:16:59;;;;;;;0.00;0.00;;;24.00;59.50;;;;;;5058259;28;20100;-74
2022/07/14 06:19:24;;;;;;;1.17;0.10;;;23.90;60.60;;;;;;5037965;28;20049;-74
2022/07/14 06:21:50;;;;;;;0.08;0.08;;;23.90;62.60;;;;;;5054393;28;20033;-74
2022/07/14 06:24:16;;;;;;;0.00;0.00;;;23.70;64.00;;;;;;5047798;28;20387;-73
2022/07/14 06:26:43;;;;;;;0.00;0.00;;;23.70;66.80;;;;;;5053048;28;20036;-73
2022/07/14 06:29:08;;;;;;;0.00;0.00;;;23.70;67.00;;;;;;5035948;28;20017;-73
2022/07/14 06:31:36;;;;;;;0.00;0.00;;;23.80;67.30;;;;;;5055403;28;20416;-74
2022/07/14 06:34:03;;;;;;;0.32;0.28;;;23.90;66.10;;;;;;5055575;28;20471;-74
2022/07/14 06:36:30;;;;;;;0.00;0.00;;;24.00;65.40;;;;;;5054191;28;20361;-74
2022/07/14 06:38:56;;;;;;;0.00;0.00;;;24.10;64.80;;;;;;5054814;28;20040;-73
2022/07/14 06:41:22;;;;;;;0.17;0.17;;;24.30;65.00;;;;;;5035214;28;20047;-73
2022/07/14 06:43:48;;;;;;;0.00;0.00;;;24.50;65.00;;;;;;5019651;28;20025;-73
2022/07/14 06:46:15;;;;;;;0.00;0.00;;;24.60;65.40;;;;;;5035453;28;20104;-71
2022/07/14 06:48:41;;;;;;;0.10;0.10;;;24.70;65.00;;;;;;5052982;28;20025;-74
2022/07/14 06:51:07;;;;;;;0.05;0.05;;;24.70;63.30;;;;;;5054777;28;20396;-74
2022/07/14 06:53:33;;;;;;;0.10;0.10;;;24.50;63.10;;;;;;5053425;28;20488;-74
2022/07/14 06:55:58;;;;;;;0.00;0.00;;;24.50;63.50;;;;;;5055305;28;20029;-74
2022/07/14 06:58:24;;;;;;;0.30;0.30;;;24.40;65.00;;;;;;5055708;28;20021;-78
2022/07/14 07:00:50;;;;;;;0.00;0.00;;;24.30;64.80;;;;;;5044999;28;20022;-77
2022/07/14 07:03:16;;;;;;;0.00;0.00;;;24.40;65.40;;;;;;5043532;28;20059;-77
2022/07/14 07:08:28;;;;;;;0.00;0.00;;;24.70;64.80;;;;;;5037264;28;20029;-74
2022/07/14 07:10:56;;;;;;;0.52;0.32;;;25.00;64.50;;;;;;5040939;28;20021;-78
2022/07/14 07:13:22;;;;;;;0.00;0.00;;;24.90;62.70;;;;;;5063269;28;20067;-78
2022/07/14 07:15:48;;;;;;;0.00;0.00;;;25.10;62.20;;;;;;5058778;28;20047;-77
2022/07/14 07:18:14;;;;;;;2.45;0.73;;;25.20;60.00;;;;;;5030332;28;20416;-76
2022/07/14 07:20:40;;;;;;;0.30;0.20;;;25.50;60.80;;;;;;5039442;28;20029;-77
2022/07/14 07:23:06;;;;;;;0.00;0.00;;;25.70;60.10;;;;;;5007678;28;20188;-76
2022/07/14 07:25:32;;;;;;;0.03;0.03;;;25.80;60.50;;;;;;5020058;28;20059;-76
2022/07/14 07:27:59;;;;;;;0.00;0.00;;;25.90;59.40;;;;;;5018051;28;20037;-76
2022/07/14 07:30:25;;;;;;;0.00;0.00;;;26.20;58.70;;;;;;5020656;28;20025;-75
2022/07/14 07:32:51;;;;;;;0.00;0.00;;;26.40;58.40;;;;;;5028799;28;20040;-77
2022/07/14 07:35:18;;;;;;;0.00;0.00;;;26.80;57.70;;;;;;5020037;28;20551;-78
2022/07/14 07:37:44;;;;;;;0.00;0.00;;;26.90;54.30;;;;;;4999752;28;20041;-76
2022/07/14 07:40:10;;;;;;;0.00;0.00;;;26.90;51.90;;;;;;5024596;28;20102;-77
2022/07/14 07:42:36;;;;;;;0.10;0.10;;;26.80;51.70;;;;;;5023867;28;20052;-75
2022/07/14 07:45:02;;;;;;;0.00;0.00;;;26.80;51.20;;;;;;5010896;28;20116;-75
2022/07/14 07:47:28;;;;;;;0.52;0.15;;;26.80;51.30;;;;;;4996380;28;20021;-77
2022/07/14 07:49:54;;;;;;;0.10;0.10;;;26.70;51.10;;;;;;5003166;28;20032;-75
2022/07/14 07:52:20;;;;;;;0.10;0.10;;;26.50;49.60;;;;;;5021780;28;20052;-76
2022/07/14 07:54:47;;;;;;;0.00;0.00;;;26.50;49.80;;;;;;5013407;28;20388;-75
2022/07/14 07:57:14;;;;;;;1.55;0.20;;;26.60;49.60;;;;;;4994689;28;20100;-75
2022/07/14 07:59:40;;;;;;;3.13;0.30;;;26.70;48.80;;;;;;5026954;28;20021;-77
2022/07/14 08:02:06;;;;;;;0.00;0.00;;;26.90;48.40;;;;;;5034440;28;20032;-76
2022/07/14 08:04:33;;;;;;;0.25;0.10;;;27.20;49.20;;;;;;4999619;28;20068;-75
2022/07/14 08:06:59;;;;;;;0.00;0.00;;;27.50;48.90;;;;;;5011079;28;20035;-75
2022/07/14 08:09:25;;;;;;;2.08;0.15;;;27.80;49.10;;;;;;4997763;28;20040;-76
2022/07/14 08:11:51;;;;;;;0.00;0.00;;;28.00;48.60;;;;;;5020251;28;20021;-76
2022/07/14 08:17:01;;;;;;;0.00;0.00;;;27.90;50.70;;;;;;5022107;28;21115;-75
2022/07/14 08:19:27;;;;;;;0.00;0.00;;;27.70;50.50;;;;;;4992468;28;20033;-75
2022/07/14 08:21:54;;;;;;;0.00;0.00;;;27.80;49.80;;;;;;5012252;28;20043;-76
2022/07/14 08:24:20;;;;;;;0.10;0.10;;;28.00;49.70;;;;;;4996763;28;20041;-76
2022/07/14 08:26:47;;;;;;;0.00;0.00;;;28.10;51.10;;;;;;5013796;28;20034;-76
2022/07/14 08:29:13;;;;;;;0.00;0.00;;;27.90;51.70;;;;;;5023240;28;20029;-77
2022/07/14 08:31:40;;;;;;;1.38;1.15;;;27.80;51.20;;;;;;4996576;28;20025;-76
2022/07/14 08:34:06;;;;;;;0.00;0.00;;;28.20;50.50;;;;;;4993317;28;21328;-73
2022/07/14 08:36:31;;;;;;;0.00;0.00;;;28.60;50.40;;;;;;5010342;28;20124;-72
2022/07/14 08:38:57;;;;;;;0.00;0.00;;;28.80;49.20;;;;;;5012632;28;20041;-72
2022/07/14 08:41:23;;;;;;;0.00;0.00;;;29.20;49.10;;;;;;5018695;28;20508;-73
2022/07/14 08:43:51;;;;;;;0.00;0.00;;;29.40;48.40;;;;;;5028162;28;20036;-73
2022/07/14 08:46:18;;;;;;;0.00;0.00;;;29.30;47.40;;;;;;5017761;28;20040;-72
2022/07/14 08:48:48;;;;;;;0.10;0.10;;;29.40;47.50;;;;;;5027505;28;20540;-73
2022/07/14 08:51:14;;;;;;;0.22;0.13;;;29.30;44.00;;;;;;5018234;28;20052;-73
2022/07/14 08:53:43;;;;;;;0.00;0.00;;;29.50;44.40;;;;;;5024078;28;20090;-72
2022/07/14 08:56:09;;;;;;;0.05;0.05;;;29.50;45.20;;;;;;5049546;28;20090;-71
2022/07/14 08:58:35;;;;;;;0.00;0.00;;;29.80;44.20;;;;;;5052671;28;20029;-77
2022/07/14 09:01:01;;;;;;;0.00;0.00;;;30.00;44.30;;;;;;5039937;28;20037;-76
2022/07/14 09:03:26;;;;;;;0.28;0.28;;;30.30;45.30;;;;;;5013024;28;20056;-77
2022/07/14 09:05:53;;;;;;;0.00;0.00;;;30.30;44.80;;;;;;5035433;28;20033;-78
2022/07/14 09:08:19;;;;;;;0.00;0.00;;;30.30;45.50;;;;;;5031430;28;20025;-77
2022/07/14 09:10:46;;;;;;;0.00;0.00;;;30.70;44.10;;;;;;5034928;28;20119;-77
2022/07/14 09:13:12;;;;;;;0.30;0.30;;;30.90;43.30;;;;;;5016969;28;20033;-76
2022/07/14 09:15:44;;;;;;;0.10;0.10;;;30.90;42.90;;;;;;5032143;28;20777;-76
2022/07/14 09:18:18;;;;;;;0.00;0.00;;;30.70;43.40;;;;;;5031895;28;20025;-78
2022/07/14 09:20:43;;;;;;;0.00;0.00;;;31.00;44.20;;;;;;5036856;28;20056;-77
2022/07/14 09:23:09;;;;;;;0.00;0.00;;;31.40;42.40;;;;;;5033488;28;20423;-76
2022/07/14 09:25:35;;;;;;;0.03;0.03;;;31.70;42.50;;;;;;5017766;28;20047;-75
2022/07/14 09:28:02;;;;;;;0.32;0.32;;;31.80;40.60;;;;;;5034196;28;20021;-76
2022/07/14 09:30:29;;;;;;;0.00;0.00;;;31.30;40.30;;;;;;5042104;28;20067;-76
2022/07/14 09:32:56;;;;;;;0.00;0.00;;;31.70;40.90;;;;;;5033187;28;20029;-77
2022/07/14 09:35:33;;;;;;;0.00;0.00;;;31.90;40.40;;;;;;5044052;28;20082;-78
2022/07/14 09:38:00;;;;;;;0.00;0.00;;;32.20;39.40;;;;;;5031155;28;20048;-77
2022/07/14 09:41:41;;;;;;;0.10;0.10;;;32.40;39.50;;;;;;5043374;23;20056;-91
2022/07/14 09:44:14;;;;;;;1.20;0.25;;;32.10;39.00;;;;;;5058769;28;20072;-92
2022/07/14 09:46:56;;;;;;;0.00;0.00;;;31.80;38.80;;;;;;5031227;28;20042;-93
2022/07/14 09:49:46;;;;;;;;;;;;;;;;;;;;;
2022/07/14 09:52:53;;;;;;;0.05;0.05;;;32.00;38.80;;;;;;5051736;28;20028;-92
2022/07/14 10:03:42;;;;;;;;;;;;;;;;;;;;;
2022/07/14 10:06:54;;;;;;;0.00;0.00;;;33.20;38.50;;;;;;4996647;28;20076;-92
2022/07/14 10:13:35;;;;;;;0.00;0.00;;;33.70;38.00;;;;;;5069972;28;20841;-93
2022/07/14 10:16:52;;;;;;;0.00;0.00;;;33.70;38.50;;;;;;5036000;28;20028;-92
2022/07/14 10:19:41;;;;;;;0.00;0.00;;;33.60;38.20;;;;;;5036869;28;20032;-93
2022/07/14 10:22:25;;;;;;;0.05;0.05;;;34.30;38.80;;;;;;5056987;28;20027;-92
2022/07/14 10:28:58;;;;;;;0.00;0.00;;;34.70;36.80;;;;;;5072886;28;20047;-93
2022/07/14 10:36:04;;;;;;;0.05;0.05;;;34.30;37.90;;;;;;5015929;28;20045;-93
2022/07/14 10:38:53;;;;;;;0.40;0.40;;;34.60;38.10;;;;;;5019366;22;20094;-76
2022/07/14 10:41:34;;;;;;;0.00;0.00;;;34.10;36.20;;;;;;5007824;28;20571;-75
2022/07/14 10:44:21;;;;;;;0.00;0.00;;;34.20;36.80;;;;;;5044450;28;20025;-75
2022/07/14 10:46:49;;;;;;;0.10;0.10;;;33.70;38.10;;;;;;5024557;28;20033;-75
2022/07/14 10:49:16;;;;;;;0.00;0.00;;;34.00;36.70;;;;;;5041919;28;20036;-74
2022/07/14 10:51:49;;;;;;;0.00;0.00;;;33.70;36.70;;;;;;5025032;28;20033;-75
2022/07/14 10:54:30;;;;;;;0.00;0.00;;;34.00;37.90;;;;;;5043049;28;20167;-75
2022/07/14 10:57:19;;;;;;;0.10;0.10;;;34.50;36.30;;;;;;5043759;28;20059;-74
2022/07/14 10:59:47;;;;;;;0.10;0.10;;;34.10;36.10;;;;;;5024684;28;20041;-75
2022/07/14 11:02:13;;;;;;;0.00;0.00;;;34.10;36.60;;;;;;5045191;28;20025;-75
2022/07/14 11:05:03;;;;;;;0.00;0.00;;;33.70;35.30;;;;;;5044215;28;20071;-75
2022/07/14 11:07:38;;;;;;;0.20;0.20;;;33.80;34.50;;;;;;5044707;28;20377;-75
2022/07/14 11:10:18;;;;;;;0.00;0.00;;;34.00;36.10;;;;;;5045280;28;20115;-75
2022/07/14 11:13:03;;;;;;;0.28;0.28;;;34.60;34.90;;;;;;5046626;28;20041;-75
2022/07/14 11:15:42;;;;;;;0.55;0.55;;;34.70;34.80;;;;;;5048038;28;20033;-75
2022/07/14 11:18:17;;;;;;;0.00;0.00;;;34.60;35.50;;;;;;5048962;28;20075;-75
2022/07/14 11:21:00;;;;;;;0.10;0.10;;;34.90;34.90;;;;;;5027792;28;20036;-74
2022/07/14 11:23:33;;;;;;;0.00;0.00;;;35.00;34.80;;;;;;5027311;28;20185;-76
2022/07/14 11:26:27;;;;;;;5.53;0.15;;;34.80;34.00;;;;;;5044644;28;20028;-75
2022/07/14 11:28:52;;;;;;;0.00;0.00;;;34.80;34.10;;;;;;5010317;28;20029;-75
2022/07/14 11:31:23;;;;;;;0.20;0.20;;;34.60;35.10;;;;;;5026446;28;20029;-75
2022/07/14 11:36:44;;;;;;;0.00;0.00;;;34.40;36.30;;;;;;5042659;28;20323;-75
2022/07/14 11:39:16;;;;;;;0.55;0.45;;;35.30;35.20;;;;;;5041874;28;20044;-76
2022/07/14 11:41:45;;;;;;;0.00;0.00;;;34.80;33.40;;;;;;5024392;28;20041;-76
2022/07/14 11:44:29;;;;;;;0.00;0.00;;;34.90;35.20;;;;;;5041869;28;20037;-73
2022/07/14 11:46:59;;;;;;;0.30;0.30;;;35.30;34.10;;;;;;5041825;28;20036;-77
2022/07/14 11:49:26;;;;;;;0.00;0.00;;;35.20;33.90;;;;;;5041295;28;20120;-75
2022/07/14 11:51:56;;;;;;;0.47;0.22;;;34.90;34.50;;;;;;5007004;28;20780;-76
2022/07/14 11:54:22;;;;;;;0.00;0.00;;;35.20;34.30;;;;;;5041509;28;20079;-77
2022/07/14 11:56:48;;;;;;;0.10;0.10;;;35.10;34.10;;;;;;5006837;28;20064;-75
2022/07/14 11:59:18;;;;;;;0.10;0.05;;;35.00;34.80;;;;;;5041387;28;20108;-75
2022/07/14 12:01:45;;;;;;;0.35;0.10;;;35.20;33.50;;;;;;5041120;28;20090;-76
2022/07/14 12:04:14;;;;;;;0.00;0.00;;;35.00;34.00;;;;;;5024335;28;20064;-78
2022/07/14 12:06:44;;;;;;;0.00;0.00;;;35.20;33.80;;;;;;5008598;28;20060;-77
2022/07/14 12:09:10;;;;;;;0.28;0.28;;;35.30;34.30;;;;;;5026191;28;20045;-78
2022/07/14 12:11:36;;;;;;;0.20;0.17;;;35.30;33.70;;;;;;5010030;28;20024;-78
2022/07/14 12:14:03;;;;;;;0.00;0.00;;;34.50;33.90;;;;;;5025752;28;20051;-78
2022/07/14 12:16:41;;;;;;;0.17;0.17;;;34.10;35.20;;;;;;5026214;28;20148;-78
2022/07/14 12:19:07;;;;;;;0.00;0.00;;;34.30;34.40;;;;;;5010771;28;20039;-77
2022/07/14 12:21:34;;;;;;;0.00;0.00;;;34.40;34.40;;;;;;5026699;28;20028;-78
2022/07/14 12:24:01;;;;;;;1.13;0.00;;;34.60;34.50;;;;;;5026823;28;20348;-78
2022/07/14 12:26:28;;;;;;;0.00;0.00;;;34.50;34.70;;;;;;5009685;28;20548;-78
2022/07/14 12:28:56;;;;;;;0.20;0.00;;;34.40;35.00;;;;;;5043430;28;20032;-77
2022/07/14 12:31:22;;;;;;;0.10;0.10;;;34.10;33.50;;;;;;5027328;28;20139;-78
2022/07/14 12:33:51;;;;;;;0.00;0.00;;;34.20;33.80;;;;;;5027641;28;20027;-78
2022/07/14 12:36:20;;;;;;;0.00;0.00;;;34.00;32.90;;;;;;5027129;28;20586;-76
2022/07/14 12:38:47;;;;;;;0.30;0.20;;;33.80;32.90;;;;;;5022826;28;20086;-76
2022/07/14 12:41:15;;;;;;;0.10;0.10;;;33.80;33.10;;;;;;5041311;28;20838;-76
2022/07/14 12:43:43;;;;;;;0.00;0.00;;;33.70;34.40;;;;;;5041666;28;20052;-76
2022/07/14 12:46:15;;;;;;;0.03;0.03;;;33.50;34.40;;;;;;5040730;28;20063;-75
2022/07/14 12:48:51;;;;;;;0.00;0.00;;;33.50;34.40;;;;;;5041497;28;20029;-76
2022/07/14 12:51:24;;;;;;;0.10;0.10;;;33.40;34.80;;;;;;5041251;28;20040;-76
2022/07/14 12:53:59;;;;;;;0.00;0.00;;;33.40;34.40;;;;;;5041719;28;20463;-75
2022/07/14 12:56:27;;;;;;;0.00;0.00;;;33.50;34.80;;;;;;5038990;28;20120;-76
2022/07/14 12:58:53;;;;;;;0.68;0.68;;;33.60;35.20;;;;;;5007387;28;20041;-77
2022/07/14 13:01:20;;;;;;;0.10;0.10;;;33.60;34.60;;;;;;5011726;28;20033;-77
2022/07/14 13:04:01;;;;;;;0.10;0.10;;;33.70;34.10;;;;;;5010420;28;20507;-77
2022/07/14 13:06:41;;;;;;;0.00;0.00;;;33.40;34.50;;;;;;5010592;28;20123;-77
2022/07/14 13:09:16;;;;;;;0.00;0.00;;;33.50;34.50;;;;;;5026589;28;20604;-77
2022/07/14 13:11:43;;;;;;;0.40;0.30;;;33.70;34.90;;;;;;5044318;28;20268;-77
2022/07/14 13:14:09;;;;;;;0.00;0.00;;;33.70;34.50;;;;;;5028209;28;20039;-78
2022/07/14 13:16:35;;;;;;;0.35;0.35;;;33.60;33.60;;;;;;5045916;28;20033;-78
2022/07/14 13:19:04;;;;;;;0.00;0.00;;;33.70;33.90;;;;;;5026753;28;20041;-77
2022/07/14 13:21:54;;;;;;;0.00;0.00;;;33.40;34.60;;;;;;5024736;28;20025;-78
2022/07/14 13:24:37;;;;;;;0.00;0.00;;;33.40;34.40;;;;;;5030628;28;20043;-77
2022/07/14 13:27:07;;;;;;;0.00;0.00;;;33.30;34.60;;;;;;5028441;28;20622;-78
2022/07/14 13:29:37;;;;;;;0.00;0.00;;;33.40;35.50;;;;;;5031402;28;20060;-77
2022/07/14 13:32:05;;;;;;;0.80;0.20;;;33.30;35.90;;;;;;5047809;28;20037;-77